Time;durP1;ratioP1;P1;durP2;ratioP2;P2;SDS_P1;SDS_P2;PMS_P1;PMS_P2;Temp;Humidity;BMP_temperature;BMP_pressure;BME280_temperature;BME280_humidity;BME280_pressure;Samples;Min_cycle;Max_cycle;Signal;HPM_P1;HPM_P2
2023/06/21 00:02:20;;;;;;;16.30;10.10;;;;;;;22.37;56.52;100204.59;4218234;28;20611;-71
2023/06/21 00:04:47;;;;;;;13.03;9.80;;;;;;;22.43;56.04;100199.03;4218487;28;21167;-76
2023/06/21 00:07:13;;;;;;;13.80;10.67;;;;;;;22.47;56.12;100205.75;4238546;28;20235;-76
2023/06/21 00:09:40;;;;;;;14.93;9.73;;;;;;;22.45;56.06;100207.06;4248993;28;21730;-75
2023/06/21 00:12:07;;;;;;;13.23;9.63;;;;;;;22.46;56.13;100217.88;4238387;28;22852;-70
2023/06/21 00:14:34;;;;;;;14.10;10.00;;;;;;;22.37;56.67;100212.84;4245756;28;20277;-74
2023/06/21 00:17:00;;;;;;;14.87;9.90;;;;;;;22.41;56.70;100212.19;4235156;28;21779;-71
2023/06/21 00:19:27;;;;;;;14.63;10.23;;;;;;;22.21;57.03;100208.81;4237798;28;21670;-75
2023/06/21 00:21:53;;;;;;;14.07;10.20;;;;;;;22.13;57.52;100213.56;4236228;28;20222;-83
2023/06/21 00:24:20;;;;;;;15.77;10.40;;;;;;;22.11;57.73;100209.38;4228032;28;20661;-74
2023/06/21 00:26:47;;;;;;;13.87;9.90;;;;;;;22.15;57.76;100208.69;4241767;28;20670;-74
2023/06/21 00:29:13;;;;;;;13.87;10.53;;;;;;;22.15;57.58;100205.91;4240765;28;20289;-74
2023/06/21 00:31:40;;;;;;;15.13;10.73;;;;;;;22.01;58.15;100201.63;4219802;28;20230;-69
2023/06/21 00:34:06;;;;;;;14.70;10.90;;;;;;;21.83;58.62;100195.03;4230586;28;20684;-71
2023/06/21 00:36:33;;;;;;;16.83;10.27;;;;;;;21.90;58.30;100197.72;4244013;28;20606;-78
2023/06/21 00:38:59;;;;;;;13.20;9.97;;;;;;;21.73;59.02;100194.69;4235833;28;20292;-71
2023/06/21 00:41:26;;;;;;;13.93;10.43;;;;;;;21.56;59.60;100188.06;4226460;28;20611;-78
2023/06/21 00:43:52;;;;;;;13.97;10.83;;;;;;;21.55;60.01;100189.97;4232872;28;21113;-79
2023/06/21 00:46:19;;;;;;;18.80;10.90;;;;;;;21.60;59.34;100181.91;4243311;28;20231;-74
2023/06/21 00:48:46;;;;;;;17.93;11.17;;;;;;;21.48;59.96;100180.94;4232972;28;20236;-76
2023/06/21 00:51:13;;;;;;;16.70;11.07;;;;;;;21.40;60.47;100183.97;4237901;28;20240;-72
2023/06/21 00:53:40;;;;;;;17.73;11.87;;;;;;;21.28;60.89;100181.97;4237912;28;20547;-78
2023/06/21 00:56:07;;;;;;;15.00;10.43;;;;;;;21.29;60.79;100188.28;4221899;28;21975;-83
2023/06/21 00:58:33;;;;;;;18.03;10.87;;;;;;;21.33;60.34;100173.84;4229065;28;20296;-84
2023/06/21 01:01:00;;;;;;;18.90;11.73;;;;;;;21.32;60.71;100185.09;4213244;28;21189;-76
2023/06/21 01:03:26;;;;;;;18.97;11.67;;;;;;;21.40;60.30;100175.72;4223249;28;20618;-73
2023/06/21 01:05:59;;;;;;;14.27;11.07;;;;;;;21.32;60.82;100174.09;4234003;28;21286;-79
2023/06/21 01:08:41;;;;;;;16.90;10.83;;;;;;;21.26;60.81;100175.00;4233567;28;20239;-70
2023/06/21 01:11:29;;;;;;;14.53;10.63;;;;;;;21.24;60.71;100188.13;4232047;28;25076;-73
2023/06/21 01:14:17;;;;;;;15.17;10.60;;;;;;;21.33;60.52;100193.13;4229066;28;20251;-77
2023/06/21 01:16:46;;;;;;;13.70;10.97;;;;;;;21.28;60.74;100194.88;4237532;28;22884;-73
2023/06/21 01:19:42;;;;;;;15.27;11.10;;;;;;;21.44;59.96;100208.06;4247068;28;20235;-73
2023/06/21 01:22:41;;;;;;;16.97;10.83;;;;;;;21.58;59.40;100213.50;4257829;28;20243;-82
2023/06/21 01:25:07;;;;;;;15.90;10.93;;;;;;;21.45;60.04;100207.00;4228157;28;21187;-83
2023/06/21 01:27:52;;;;;;;14.57;11.53;;;;;;;21.44;60.03;100205.31;4266176;28;21095;-76
2023/06/21 01:30:20;;;;;;;17.03;11.13;;;;;;;21.39;60.24;100213.44;4232230;28;20349;-70
2023/06/21 01:32:48;;;;;;;16.57;11.83;;;;;;;21.37;60.43;100210.88;4223245;28;20266;-75
2023/06/21 01:35:15;;;;;;;14.87;11.50;;;;;;;21.37;60.46;100212.81;4224093;28;20223;-73
2023/06/21 01:37:44;;;;;;;18.10;11.77;;;;;;;21.32;60.33;100207.97;4235996;28;20235;-77
2023/06/21 01:40:11;;;;;;;20.87;11.20;;;;;;;21.15;61.12;100204.94;4232987;28;20409;-79
2023/06/21 01:42:38;;;;;;;19.10;11.97;;;;;;;21.22;60.94;100207.63;4233598;28;20239;-76
2023/06/21 01:45:05;;;;;;;18.40;12.57;;;;;;;20.95;61.91;100206.97;4239758;28;20317;-73
2023/06/21 01:47:33;;;;;;;17.17;12.63;;;;;;;20.85;62.35;100204.69;4237717;28;20242;-78
2023/06/21 01:50:01;;;;;;;14.60;11.53;;;;;;;20.94;62.14;100210.78;4251768;28;21124;-70
2023/06/21 01:52:30;;;;;;;16.53;12.53;;;;;;;20.93;62.26;100212.69;4240977;28;20269;-81
2023/06/21 01:54:57;;;;;;;17.70;12.53;;;;;;;21.07;61.66;100218.13;4243184;28;20229;-72
2023/06/21 01:57:24;;;;;;;17.23;11.63;;;;;;;21.03;61.93;100221.31;4235737;28;22222;-84
2023/06/21 01:59:52;;;;;;;18.47;12.30;;;;;;;21.00;61.86;100223.66;4211986;28;20551;-73
2023/06/21 02:02:21;;;;;;;16.83;12.87;;;;;;;20.90;62.22;100224.16;4260037;28;21163;-78
2023/06/21 02:04:49;;;;;;;18.73;12.60;;;;;;;20.94;61.99;100216.31;4220666;28;20248;-77
2023/06/21 02:07:16;;;;;;;18.20;12.73;;;;;;;21.04;61.96;100214.75;4236524;28;20227;-73
2023/06/21 02:09:43;;;;;;;15.50;11.93;;;;;;;20.90;62.21;100216.72;4237749;28;23627;-71
2023/06/21 02:12:10;;;;;;;16.50;12.30;;;;;;;20.78;62.79;100207.50;4219463;28;22558;-80
2023/06/21 02:14:38;;;;;;;15.73;12.30;;;;;;;20.77;62.68;100221.50;4224723;28;20317;-83
2023/06/21 02:17:04;;;;;;;17.47;12.57;;;;;;;20.89;62.30;100225.22;4243647;28;20916;-83
2023/06/21 02:19:31;;;;;;;16.20;12.33;;;;;;;20.82;62.45;100221.66;4226077;28;20383;-83
2023/06/21 02:21:57;;;;;;;18.40;12.47;;;;;;;20.85;62.39;100222.06;4262169;28;20297;-69
2023/06/21 02:24:24;;;;;;;17.93;12.83;;;;;;;20.91;62.42;100220.34;4265490;28;21606;-72
2023/06/21 02:26:51;;;;;;;16.73;12.50;;;;;;;20.71;62.81;100209.41;4261058;28;20239;-68
2023/06/21 02:29:17;;;;;;;17.63;12.20;;;;;;;20.85;62.46;100216.56;4252185;28;20231;-67
2023/06/21 02:31:44;;;;;;;23.00;12.10;;;;;;;20.83;62.53;100218.69;4252282;28;20235;-72
2023/06/21 02:34:11;;;;;;;16.40;12.67;;;;;;;20.81;62.42;100212.53;4271936;28;20300;-74
2023/06/21 02:36:38;;;;;;;16.77;12.23;;;;;;;20.76;62.26;100219.78;4264653;28;23250;-69
2023/06/21 02:39:06;;;;;;;19.10;12.70;;;;;;;20.80;62.39;100216.38;4234286;28;23554;-75
2023/06/21 02:41:32;;;;;;;17.07;12.07;;;;;;;20.66;63.10;100222.97;4263307;28;22260;-78
2023/06/21 02:43:59;;;;;;;16.67;12.60;;;;;;;20.78;62.48;100223.16;4245555;28;20458;-74
2023/06/21 02:46:26;;;;;;;17.73;11.97;;;;;;;20.92;61.84;100219.28;4240768;28;20232;-75
2023/06/21 02:48:53;;;;;;;16.90;12.50;;;;;;;20.89;62.15;100233.47;4260585;28;20247;-80
2023/06/21 02:51:20;;;;;;;15.50;11.23;;;;;;;20.76;62.54;100223.38;4280428;28;20319;-71
2023/06/21 02:53:47;;;;;;;16.37;12.50;;;;;;;20.73;62.18;100213.66;4280996;28;20235;-74
2023/06/21 02:56:14;;;;;;;15.70;12.23;;;;;;;20.78;62.17;100218.50;4264017;28;20325;-85
2023/06/21 02:58:41;;;;;;;16.40;11.90;;;;;;;20.71;62.31;100203.91;4236833;28;21381;-86
2023/06/21 03:01:08;;;;;;;19.33;12.10;;;;;;;20.87;61.72;100210.81;4251515;28;20226;-74
2023/06/21 03:03:40;;;;;;;14.67;11.23;;;;;;;20.93;61.61;100212.69;4295825;28;24924;-79
2023/06/21 03:06:07;;;;;;;16.97;11.77;;;;;;;21.01;61.42;100217.09;4271341;28;20741;-86
2023/06/21 03:08:38;;;;;;;18.63;11.83;;;;;;;21.24;59.75;100226.69;4292994;28;20235;-77
2023/06/21 03:11:12;;;;;;;14.77;11.33;;;;;;;21.35;59.53;100229.56;4230237;28;20231;-82
2023/06/21 03:13:38;;;;;;;15.87;11.20;;;;;;;21.33;59.75;100225.34;4241951;28;22122;-85
2023/06/21 03:16:06;;;;;;;14.47;11.03;;;;;;;21.55;59.06;100231.28;4262708;28;20262;-73
2023/06/21 03:18:33;;;;;;;15.40;11.30;;;;;;;21.51;59.06;100230.06;4263065;28;20466;-72
2023/06/21 03:21:01;;;;;;;20.60;11.50;;;;;;;21.68;58.61;100241.38;4251601;28;22132;-68
2023/06/21 03:23:28;;;;;;;19.53;11.87;;;;;;;21.49;59.10;100229.44;4263661;28;20570;-76
2023/06/21 03:25:54;;;;;;;14.27;10.63;;;;;;;21.65;58.68;100231.66;4268464;28;20278;-71
2023/06/21 03:28:21;;;;;;;16.13;11.50;;;;;;;21.74;58.38;100226.69;4281369;28;20242;-85
2023/06/21 03:30:48;;;;;;;15.53;10.83;;;;;;;21.80;58.52;100228.53;4263505;28;21943;-71
2023/06/21 03:33:14;;;;;;;17.70;11.40;;;;;;;21.75;58.55;100222.88;4268264;28;21112;-71
2023/06/21 03:35:41;;;;;;;17.53;11.27;;;;;;;21.79;58.05;100217.75;4270338;28;20228;-75
2023/06/21 03:38:08;;;;;;;17.57;11.23;;;;;;;21.83;58.09;100222.59;4273455;28;22867;-68
2023/06/21 03:40:35;;;;;;;17.03;11.30;;;;;;;21.91;57.98;100221.44;4255145;28;22900;-71
2023/06/21 03:43:02;;;;;;;17.27;10.73;;;;;;;21.94;58.00;100218.22;4245059;28;20505;-81
2023/06/21 03:45:29;;;;;;;15.67;10.47;;;;;;;22.09;57.50;100222.53;4242354;28;20239;-72
2023/06/21 03:47:55;;;;;;;12.70;9.70;;;;;;;22.15;57.46;100216.09;4262008;28;20260;-72
2023/06/21 03:50:23;;;;;;;14.73;10.30;;;;;;;22.13;57.54;100227.34;4255314;28;20234;-69
2023/06/21 03:52:49;;;;;;;14.30;10.67;;;;;;;22.32;56.77;100224.59;4239360;28;20253;-80
2023/06/21 03:55:18;;;;;;;14.23;10.73;;;;;;;22.57;55.81;100221.78;4261720;28;25664;-70
2023/06/21 03:57:44;;;;;;;16.80;10.83;;;;;;;22.73;55.36;100224.97;4223388;28;20231;-71
2023/06/21 04:00:12;;;;;;;14.77;10.80;;;;;;;22.82;55.06;100229.06;4235509;28;20239;-80
2023/06/21 04:02:39;;;;;;;15.00;10.50;;;;;;;22.93;54.95;100232.94;4232146;28;20228;-71
2023/06/21 04:05:06;;;;;;;20.80;11.60;;;;;;;22.83;54.88;100232.69;4248140;28;20235;-73
2023/06/21 04:07:33;;;;;;;18.33;10.77;;;;;;;22.79;55.16;100224.84;4226767;28;20263;-75
2023/06/21 04:10:00;;;;;;;18.43;11.30;;;;;;;22.88;55.09;100228.16;4225137;28;20250;-84
2023/06/21 04:12:28;;;;;;;14.30;11.03;;;;;;;22.92;55.23;100239.56;4231956;28;20379;-71
2023/06/21 04:14:55;;;;;;;18.00;10.67;;;;;;;22.88;55.14;100236.44;4233681;28;20240;-78
2023/06/21 04:17:21;;;;;;;16.93;11.20;;;;;;;22.89;55.26;100240.03;4236058;28;20235;-70
2023/06/21 04:19:48;;;;;;;16.30;10.30;;;;;;;22.95;55.09;100242.69;4242783;28;20322;-75
2023/06/21 04:22:14;;;;;;;17.40;10.70;;;;;;;23.02;54.81;100241.75;4236106;28;22848;-72
2023/06/21 04:24:41;;;;;;;15.90;10.73;;;;;;;22.99;55.14;100248.59;4237469;28;20364;-79
2023/06/21 04:27:12;;;;;;;14.50;10.60;;;;;;;22.97;54.99;100247.13;4231242;28;20421;-74
2023/06/21 04:29:40;;;;;;;14.27;10.20;;;;;;;23.04;54.56;100247.84;4242047;28;20239;-79
2023/06/21 04:32:08;;;;;;;18.03;10.97;;;;;;;22.97;55.08;100247.13;4220205;28;20231;-73
2023/06/21 04:34:36;;;;;;;15.90;10.52;;;;;;;22.98;55.44;100241.38;4239930;28;21517;-73
2023/06/21 04:37:06;;;;;;;14.77;11.07;;;;;;;22.92;55.28;100248.66;4247321;28;20339;-70
2023/06/21 04:39:35;;;;;;;16.30;11.47;;;;;;;23.00;55.40;100246.66;4253894;28;20498;-74
2023/06/21 04:42:02;;;;;;;16.50;10.73;;;;;;;23.00;55.48;100252.19;4245138;28;20231;-75
2023/06/21 04:44:29;;;;;;;16.77;11.23;;;;;;;23.04;55.15;100254.25;4207513;28;20239;-73
2023/06/21 04:46:56;;;;;;;17.60;11.30;;;;;;;22.96;55.69;100249.03;4248072;28;20230;-75
2023/06/21 04:49:26;;;;;;;17.17;11.10;;;;;;;23.07;55.34;100245.50;4235888;28;25643;-82
2023/06/21 04:51:58;;;;;;;16.90;11.07;;;;;;;23.17;54.76;100233.91;4221779;28;21578;-70
2023/06/21 04:54:25;;;;;;;13.77;10.87;;;;;;;23.15;55.03;100236.03;4266215;28;20394;-70
2023/06/21 04:56:52;;;;;;;21.67;12.00;;;;;;;23.22;55.25;100238.72;4246678;28;20231;-68
2023/06/21 04:59:19;;;;;;;15.77;11.23;;;;;;;23.26;54.74;100228.88;4248912;28;20232;-72
2023/06/21 05:01:46;;;;;;;18.33;11.73;;;;;;;23.37;54.65;100238.25;4214478;28;20688;-78
2023/06/21 05:04:12;;;;;;;24.07;11.53;;;;;;;23.36;54.97;100231.91;4239332;28;20288;-75
2023/06/21 05:06:40;;;;;;;16.90;11.53;;;;;;;23.50;54.23;100234.44;4233155;28;20695;-72
2023/06/21 05:09:08;;;;;;;28.90;12.07;;;;;;;23.65;54.30;100236.72;4230499;28;20795;-72
2023/06/21 05:11:36;;;;;;;19.97;11.57;;;;;;;23.76;53.79;100235.91;4225699;28;24140;-78
2023/06/21 05:14:03;;;;;;;20.30;11.65;;;;;;;23.93;53.45;100249.00;4225447;28;20261;-72
2023/06/21 05:16:30;;;;;;;15.77;11.47;;;;;;;24.27;52.79;100241.78;4246398;28;20770;-68
2023/06/21 05:18:56;;;;;;;21.50;11.53;;;;;;;24.20;53.46;100239.16;4242334;28;20239;-68
2023/06/21 05:21:23;;;;;;;17.90;11.67;;;;;;;24.55;52.15;100242.09;4231958;28;20235;-69
2023/06/21 05:23:50;;;;;;;17.93;11.00;;;;;;;24.90;51.59;100239.19;4233019;28;20246;-66
2023/06/21 05:26:16;;;;;;;16.67;11.40;;;;;;;25.40;50.15;100237.63;4252482;28;20421;-70
2023/06/21 05:28:43;;;;;;;22.33;10.60;;;;;;;25.77;49.00;100244.59;4252554;28;20273;-70
2023/06/21 05:31:11;;;;;;;15.68;11.43;;;;;;;26.18;47.61;100242.44;4262657;28;20337;-70
2023/06/21 05:33:37;;;;;;;19.57;11.20;;;;;;;25.94;47.97;100245.41;4248905;28;20235;-68
2023/06/21 05:36:04;;;;;;;16.42;10.82;;;;;;;25.48;49.29;100250.25;4234476;28;20231;-70
2023/06/21 05:38:31;;;;;;;21.52;10.55;;;;;;;25.36;49.87;100250.28;4233261;28;20421;-69
2023/06/21 05:40:57;;;;;;;18.02;11.05;;;;;;;25.30;50.19;100252.13;4231464;28;20231;-68
2023/06/21 05:43:24;;;;;;;21.43;11.97;;;;;;;25.12;50.79;100255.97;4233028;28;22366;-69
2023/06/21 05:45:50;;;;;;;17.75;11.35;;;;;;;25.30;50.66;100252.13;4234465;28;20321;-65
2023/06/21 05:48:17;;;;;;;15.27;11.18;;;;;;;25.42;50.62;100257.63;4219538;28;21723;-68
2023/06/21 05:50:44;;;;;;;18.10;11.45;;;;;;;25.87;49.45;100258.59;4242039;28;21724;-70
2023/06/21 05:53:11;;;;;;;22.90;11.25;;;;;;;26.35;48.46;100249.88;4257067;28;20905;-70
2023/06/21 05:55:38;;;;;;;21.60;12.23;;;;;;;26.67;47.89;100252.78;4232273;28;20253;-69
2023/06/21 05:58:05;;;;;;;19.33;11.13;;;;;;;27.72;45.32;100256.34;4237692;28;20239;-69
2023/06/21 06:00:31;;;;;;;17.33;11.07;;;;;;;28.40;43.24;100249.28;4243991;28;23838;-69
2023/06/21 06:02:58;;;;;;;18.55;10.77;;;;;;;28.90;42.68;100245.03;4241854;28;21648;-66
2023/06/21 06:05:25;;;;;;;21.60;10.93;;;;;;;29.04;41.62;100238.91;4239924;28;20945;-69
2023/06/21 06:07:52;;;;;;;17.45;10.05;;;;;;;29.19;41.53;100243.69;4225608;28;21020;-67
2023/06/21 06:10:19;;;;;;;18.45;10.82;;;;;;;29.51;41.62;100251.81;4252225;28;20426;-69
2023/06/21 06:12:45;;;;;;;21.38;10.30;;;;;;;30.32;39.23;100237.19;4236861;28;20234;-69
2023/06/21 06:15:12;;;;;;;14.75;10.05;;;;;;;30.38;38.35;100233.25;4240945;28;20239;-67
2023/06/21 06:17:39;;;;;;;14.30;9.35;;;;;;;30.34;38.40;100249.72;4235289;28;20332;-66
2023/06/21 06:20:07;;;;;;;18.27;9.50;;;;;;;30.63;38.36;100239.88;4234638;28;20242;-70
2023/06/21 06:22:34;;;;;;;16.73;9.75;;;;;;;31.28;36.96;100236.97;4240507;28;20300;-68
2023/06/21 06:25:02;;;;;;;17.23;9.80;;;;;;;31.39;36.79;100242.47;4247315;28;20240;-66
2023/06/21 06:27:29;;;;;;;21.87;9.67;;;;;;;31.77;35.54;100240.78;4237748;28;20598;-67
2023/06/21 06:29:56;;;;;;;19.95;10.27;;;;;;;31.93;35.83;100246.22;4250630;28;20325;-69
2023/06/21 06:32:24;;;;;;;16.77;9.32;;;;;;;32.05;35.61;100241.03;4245075;28;22601;-67
2023/06/21 06:34:50;;;;;;;16.58;9.50;;;;;;;32.84;34.35;100231.41;4239749;28;20228;-68
2023/06/21 06:37:17;;;;;;;14.45;8.57;;;;;;;33.58;33.05;100234.75;4239291;28;22411;-68
2023/06/21 06:39:49;;;;;;;17.60;9.43;;;;;;;34.66;31.42;100243.94;4237977;28;20238;-63
2023/06/21 06:42:15;;;;;;;19.48;9.13;;;;;;;34.59;31.65;100237.91;4247524;28;20282;-69
2023/06/21 06:44:43;;;;;;;15.93;8.95;;;;;;;34.87;31.38;100230.25;4238619;28;26281;-69
2023/06/21 06:47:11;;;;;;;16.55;9.52;;;;;;;34.84;31.62;100235.69;4238083;28;22977;-68
2023/06/21 06:49:37;;;;;;;12.45;9.10;;;;;;;35.18;30.70;100234.34;4250625;28;20281;-69
2023/06/21 06:52:05;;;;;;;17.08;8.45;;;;;;;35.63;30.76;100225.91;4248069;28;20297;-69
2023/06/21 06:54:31;;;;;;;20.42;9.65;;;;;;;35.52;30.91;100235.78;4231944;28;22856;-73
2023/06/21 06:56:58;;;;;;;16.00;8.63;;;;;;;35.75;30.14;100230.13;4258490;28;20230;-68
2023/06/21 06:59:25;;;;;;;17.38;8.95;;;;;;;35.70;30.25;100231.09;4259505;28;20470;-67
2023/06/21 07:01:55;;;;;;;15.63;9.50;;;;;;;35.28;30.78;100228.47;4251740;28;20236;-70
2023/06/21 07:04:22;;;;;;;14.02;9.23;;;;;;;35.72;29.62;100234.41;4261064;28;20234;-64
2023/06/21 07:08:11;;;;;;;12.32;8.82;;;;;;;35.62;29.90;100218.59;4295752;28;20402;-79
2023/06/21 07:10:38;;;;;;;15.25;8.55;;;;;;;35.85;29.50;100227.84;4265130;28;25425;-70
2023/06/21 07:13:06;;;;;;;15.55;8.50;;;;;;;35.84;30.49;100237.44;4274201;28;25985;-72
2023/06/21 07:15:33;;;;;;;15.32;8.75;;;;;;;36.75;27.51;100231.50;4286083;28;20233;-69
2023/06/21 07:18:00;;;;;;;13.82;7.95;;;;;;;36.47;28.26;100234.63;4256986;28;20231;-71
2023/06/21 07:20:27;;;;;;;10.30;8.15;;;;;;;35.60;29.22;100239.78;4263769;28;20517;-71
2023/06/21 07:22:56;;;;;;;15.38;9.05;;;;;;;34.47;31.43;100232.00;4268313;28;21106;-69
2023/06/21 07:25:23;;;;;;;16.40;9.10;;;;;;;34.37;31.25;100233.88;4283888;28;20334;-72
2023/06/21 07:27:50;;;;;;;16.45;9.00;;;;;;;34.40;31.43;100235.22;4262647;28;21140;-70
2023/06/21 07:30:17;;;;;;;13.57;9.20;;;;;;;33.99;31.76;100236.03;4285241;28;20259;-68
2023/06/21 07:32:46;;;;;;;15.18;9.15;;;;;;;33.62;32.91;100242.25;4287228;28;20243;-71
2023/06/21 07:35:14;;;;;;;15.20;8.80;;;;;;;33.77;32.42;100229.94;4319492;28;20258;-69
2023/06/21 07:37:44;;;;;;;10.15;8.77;;;;;;;33.88;32.58;100229.75;4290680;28;20636;-72
2023/06/21 07:40:12;;;;;;;14.10;8.63;;;;;;;34.35;32.30;100221.25;4290941;28;20301;-69
2023/06/21 07:42:39;;;;;;;10.15;8.35;;;;;;;33.53;30.78;100232.91;4286628;28;21196;-72
2023/06/21 07:45:07;;;;;;;11.88;7.70;;;;;;;33.05;31.39;100225.50;4257306;28;20797;-69
2023/06/21 07:47:35;;;;;;;8.57;7.53;;;;;;;33.46;30.82;100232.47;4262678;28;21017;-67
2023/06/21 07:50:04;;;;;;;10.50;8.13;;;;;;;33.83;30.52;100225.06;4290967;28;20234;-70
2023/06/21 07:52:47;;;;;;;10.70;7.25;;;;;;;33.85;30.87;100227.59;4251383;28;21244;-70
2023/06/21 07:55:14;;;;;;;10.18;7.32;;;;;;;33.21;31.51;100226.09;4254907;28;20404;-69
2023/06/21 07:57:41;;;;;;;17.58;8.18;;;;;;;32.76;31.70;100211.63;4247032;28;20227;-68
2023/06/21 08:00:12;;;;;;;14.07;7.93;;;;;;;32.36;32.38;100228.69;4250737;28;22521;-72
2023/06/21 08:02:41;;;;;;;10.15;7.45;;;;;;;32.61;32.30;100230.31;4244798;28;21900;-69
2023/06/21 08:05:08;;;;;;;14.10;8.07;;;;;;;32.30;32.72;100232.66;4249294;28;20245;-67
2023/06/21 08:07:36;;;;;;;12.02;7.88;;;;;;;31.98;33.44;100228.53;4234181;28;20234;-68
2023/06/21 08:10:02;;;;;;;14.88;8.98;;;;;;;32.00;33.41;100229.91;4264578;28;21021;-67
2023/06/21 08:12:29;;;;;;;13.02;8.48;;;;;;;32.29;33.04;100229.03;4259480;28;20246;-70
2023/06/21 08:14:56;;;;;;;17.88;8.57;;;;;;;32.42;32.96;100235.03;4263344;28;20243;-67
2023/06/21 08:17:23;;;;;;;11.32;8.05;;;;;;;32.18;33.33;100219.91;4266072;28;20226;-68
2023/06/21 08:19:50;;;;;;;12.32;8.32;;;;;;;32.67;32.96;100219.84;4260139;28;20231;-69
2023/06/21 08:22:16;;;;;;;12.18;7.82;;;;;;;32.50;33.03;100235.22;4256028;28;20912;-66
2023/06/21 08:24:43;;;;;;;16.13;8.90;;;;;;;32.03;33.63;100225.66;4232879;28;20253;-67
2023/06/21 08:27:11;;;;;;;11.80;8.48;;;;;;;31.98;34.52;100222.94;4257689;28;20239;-67
2023/06/21 08:29:38;;;;;;;15.45;8.73;;;;;;;32.10;34.53;100217.75;4253483;28;21612;-69
2023/06/21 08:32:05;;;;;;;12.23;8.82;;;;;;;32.47;33.03;100229.38;4256016;28;20236;-68
2023/06/21 08:34:32;;;;;;;12.77;8.55;;;;;;;32.74;32.72;100225.09;4241716;28;20235;-69
2023/06/21 08:36:59;;;;;;;13.50;8.77;;;;;;;32.71;32.58;100221.75;4245412;28;22102;-68
2023/06/21 08:39:26;;;;;;;11.45;8.23;;;;;;;32.06;34.19;100233.50;4261708;28;20290;-70
2023/06/21 08:41:56;;;;;;;9.32;7.82;;;;;;;32.03;34.06;100234.88;4233729;28;20237;-67
2023/06/21 08:44:23;;;;;;;12.80;9.35;;;;;;;32.21;34.38;100236.16;4248119;28;20235;-71
2023/06/21 08:46:50;;;;;;;13.00;9.07;;;;;;;31.44;35.69;100229.28;4263184;28;22642;-69
2023/06/21 08:49:20;;;;;;;11.85;8.68;;;;;;;31.54;34.93;100225.56;4249568;28;21576;-69
2023/06/21 08:51:48;;;;;;;12.68;8.07;;;;;;;32.05;33.70;100229.84;4220541;28;20393;-72
2023/06/21 08:54:19;;;;;;;14.05;8.52;;;;;;;31.87;32.59;100225.00;4252090;28;20226;-68
2023/06/21 08:56:52;;;;;;;10.35;8.60;;;;;;;31.47;33.28;100224.25;4238305;28;20321;-69
2023/06/21 08:59:47;;;;;;;11.93;7.97;;;;;;;31.42;33.28;100222.31;4245867;28;23324;-71
2023/06/21 09:02:41;;;;;;;10.65;8.38;;;;;;;30.96;34.24;100227.09;4230649;28;20241;-69
2023/06/21 09:05:27;;;;;;;11.77;8.07;;;;;;;30.69;35.01;100223.94;4245515;28;20971;-68
2023/06/21 09:07:55;;;;;;;11.02;8.02;;;;;;;30.69;35.39;100226.72;4228240;28;20298;-69
2023/06/21 09:10:22;;;;;;;11.35;8.73;;;;;;;30.61;35.07;100217.81;4226528;28;21194;-71
2023/06/21 09:12:49;;;;;;;10.50;8.00;;;;;;;30.59;34.50;100214.47;4243001;28;22300;-69
2023/06/21 09:15:17;;;;;;;14.00;8.68;;;;;;;30.39;34.73;100215.38;4219956;28;20232;-71
2023/06/21 09:17:46;;;;;;;12.05;8.32;;;;;;;30.31;34.90;100215.94;4230736;28;21857;-70
2023/06/21 09:20:13;;;;;;;12.75;8.43;;;;;;;30.41;34.41;100229.88;4227232;28;20760;-72
2023/06/21 09:22:40;;;;;;;14.20;8.23;;;;;;;30.15;35.13;100217.97;4241450;28;20232;-69
2023/06/21 09:25:07;;;;;;;10.43;8.35;;;;;;;30.33;34.76;100220.13;4234383;28;20239;-70
2023/06/21 09:27:34;;;;;;;18.80;8.52;;;;;;;30.43;34.85;100213.69;4230145;28;20235;-73
2023/06/21 09:30:01;;;;;;;14.85;8.32;;;;;;;30.58;35.03;100226.75;4241682;28;20442;-69
2023/06/21 09:32:42;;;;;;;12.07;8.80;;;;;;;30.26;36.13;100227.16;4236628;28;20273;-73
2023/06/21 09:35:10;;;;;;;13.18;8.30;;;;;;;30.06;35.88;100216.88;4242305;28;20277;-70
2023/06/21 09:37:38;;;;;;;12.27;8.40;;;;;;;30.62;35.38;100216.69;4229379;28;20235;-71
2023/06/21 09:40:08;;;;;;;8.60;7.72;;;;;;;30.92;35.13;100226.03;4246494;28;20240;-69
2023/06/21 09:42:39;;;;;;;11.82;8.50;;;;;;;30.99;34.56;100231.28;4224945;28;20245;-75
2023/06/21 09:45:11;;;;;;;10.90;7.60;;;;;;;31.10;35.08;100221.72;4233854;28;22091;-73
2023/06/21 09:47:43;;;;;;;12.88;8.57;;;;;;;31.43;34.55;100224.00;4223779;28;20519;-69
2023/06/21 09:50:10;;;;;;;10.73;8.82;;;;;;;31.06;34.29;100212.22;4230759;28;20255;-74
2023/06/21 09:52:43;;;;;;;11.02;8.15;;;;;;;30.73;34.92;100220.28;4244882;28;21823;-70
2023/06/21 09:55:16;;;;;;;12.25;8.40;;;;;;;30.42;35.98;100225.97;4232967;28;20231;-75
2023/06/21 09:57:43;;;;;;;11.10;8.52;;;;;;;30.31;36.62;100224.34;4210838;28;20232;-72
2023/06/21 10:00:12;;;;;;;13.13;8.80;;;;;;;29.83;37.27;100230.31;4242122;28;21577;-74
2023/06/21 10:02:40;;;;;;;13.45;8.65;;;;;;;29.41;37.30;100223.91;4230617;28;20258;-74
2023/06/21 10:05:17;;;;;;;15.38;8.73;;;;;;;29.54;36.88;100228.09;4235747;28;20523;-72
2023/06/21 10:07:44;;;;;;;17.73;8.80;;;;;;;29.50;37.29;100226.97;4249202;28;21395;-70
2023/06/21 10:10:12;;;;;;;15.05;8.57;;;;;;;29.70;36.52;100213.03;4241555;28;20230;-74
2023/06/21 10:12:49;;;;;;;15.43;8.82;;;;;;;29.68;36.39;100229.22;4245578;28;20306;-70
2023/06/21 10:15:19;;;;;;;12.13;8.27;;;;;;;29.52;37.27;100227.53;4239640;28;20223;-70
2023/06/21 10:17:46;;;;;;;19.08;8.77;;;;;;;29.17;38.22;100229.19;4261384;28;20338;-72
2023/06/21 10:20:30;;;;;;;13.55;8.77;;;;;;;29.21;38.15;100222.78;4230679;28;20650;-75
2023/06/21 10:22:57;;;;;;;14.38;8.82;;;;;;;29.18;38.26;100211.34;4232021;28;20231;-71
2023/06/21 10:25:25;;;;;;;14.88;8.82;;;;;;;29.04;38.79;100227.78;4233351;28;21965;-74
2023/06/21 10:27:54;;;;;;;17.23;9.10;;;;;;;28.94;39.03;100235.00;4232411;28;20239;-69
2023/06/21 10:30:22;;;;;;;11.40;7.82;;;;;;;28.83;39.52;100227.75;4217007;28;20434;-71
2023/06/21 10:32:49;;;;;;;15.48;9.23;;;;;;;28.86;39.52;100235.53;4223464;28;20714;-70
2023/06/21 10:35:17;;;;;;;14.88;8.73;;;;;;;28.85;39.85;100236.66;4260424;28;20418;-71
2023/06/21 10:37:54;;;;;;;13.98;8.45;;;;;;;28.72;39.78;100235.22;4231268;28;20230;-72
2023/06/21 10:40:21;;;;;;;13.52;8.55;;;;;;;28.58;40.08;100228.47;4234089;28;20400;-69
2023/06/21 10:42:49;;;;;;;9.95;8.27;;;;;;;28.70;39.63;100231.88;4243111;28;20278;-71
2023/06/21 10:45:16;;;;;;;13.63;8.38;;;;;;;28.78;39.13;100239.69;4259573;28;22722;-72
2023/06/21 10:47:43;;;;;;;14.30;8.85;;;;;;;28.65;39.71;100244.91;4233769;28;21199;-70
2023/06/21 10:50:11;;;;;;;12.38;8.65;;;;;;;28.51;40.32;100251.00;4235954;28;20332;-76
2023/06/21 10:52:39;;;;;;;11.68;8.75;;;;;;;28.36;41.03;100245.34;4236507;28;20629;-70
2023/06/21 10:55:06;;;;;;;10.50;8.30;;;;;;;28.22;41.16;100256.13;4233166;28;20227;-58
2023/06/21 10:57:34;;;;;;;15.23;8.60;;;;;;;28.06;41.89;100250.47;4252245;28;20241;-69
2023/06/21 11:00:03;;;;;;;15.15;8.63;;;;;;;28.11;41.76;100258.88;4246409;28;20296;-68
2023/06/21 11:02:30;;;;;;;12.10;8.30;;;;;;;28.05;41.99;100259.94;4230417;28;20227;-70
2023/06/21 11:05:16;;;;;;;13.45;9.00;;;;;;;27.96;42.39;100265.13;4239383;28;20233;-67
2023/06/21 11:07:57;;;;;;;17.35;9.35;;;;;;;28.13;42.15;100276.16;4239790;28;20316;-70
2023/06/21 11:10:36;;;;;;;22.38;9.18;;;;;;;28.03;42.87;100276.03;4248243;28;20280;-67
2023/06/21 11:13:02;;;;;;;18.45;9.57;;;;;;;28.02;43.43;100279.09;4237465;28;20262;-67
2023/06/21 11:15:30;;;;;;;19.58;8.65;;;;;;;27.95;44.25;100284.88;4223407;28;20238;-68
2023/06/21 11:18:08;;;;;;;19.53;9.97;;;;;;;27.35;47.78;100298.81;4239374;28;20236;-71
2023/06/21 11:20:49;;;;;;;13.55;9.90;;;;;;;26.66;50.13;100305.78;4227265;28;25440;-68